Greenwood, NE (68366)

12:11 PM CDT on July 29, 2016 (GMT -0500)
Evandale | | Change Station

Elev 1178 ft 40.91 °N, 96.52 °W | Updated 12 seconds ago

Light Rain
Light Rain
73.9 °F
Feels Like 73 °F
N
2.9
Wind Variable Wind from NW
Gusts 5.0 mph

Today
High -- | Low -- °F
--% Chance of Precip.
Yesterday
High -- | Low -- °F
Precip. -- in
Pressure 30.05 in
Visibility 10.0 miles
Clouds Few 3600 ft
Scattered Clouds 8000 ft
Overcast 11000 ft
Heat Index 73 °F
Dew Point 70 °F
Humidity 87%
Rainfall 0.29 in
Snow Depth Not available.
6:19 AM 8:44 PM
Waning Crescent, 20% visible
METAR KLNK 291654Z 36007KT 10SM -RA FEW036 SCT080 OVC110 23/19 A3008 RMK AO2 RAB48 SLP175 P0000 T02280189
Pressure 30.05 in
Visibility 10.0 miles
Clouds Few 3600 ft
Scattered Clouds 8000 ft
Overcast 11000 ft
Heat Index 73 °F
Dew Point 70 °F
Humidity 87%
Rainfall 0.29 in
Snow Depth Not available.
6:19 AM 8:44 PM
Waning Crescent, 20% visible
METAR KLNK 291654Z 36007KT 10SM -RA FEW036 SCT080 OVC110 23/19 A3008 RMK AO2 RAB48 SLP175 P0000 T02280189

10-Day Weather Forecast

Almanac

Astronomy

Jul. 29, 2016 Rise Set
Actual Time
Civil Twilight
Nautical Twilight
Astronomical Twilight
Moon
Length of Visible Light
Length of Day
Tomorrow will be .
, % of the Moon is Illuminated

Today's Extremes

State Highs State Lows

Community

WunderPhotos

Upload Photos

1,928,381 photos uploaded!

WunderBlog® & News

Nearby

Air Quality

  Air Quality AQ Index Pollutant
Not available.

Snow Depth

Station Depth Elevation

Earthquake Activity

City Distance Mag. Time & Date
Minimum magnitude displayed is 2.5.

Coastal Water Temperatures

Place Temperature

Stations

Nearby Weather Stations

Station Location Temp. Windchill Dew Point Humidity Wind Precip. Elev Updated Type
                   

Watches & Warnings

There are currently no watches in effect.